createdAt,value
2023-05-11T00:01:07.493Z,70.20
2023-05-11T00:03:38.587Z,70.60
2023-05-11T00:06:05.525Z,70.60
2023-05-11T00:08:32.362Z,70.80
2023-05-11T00:11:00.957Z,70.90
2023-05-11T00:13:28.581Z,71.00
2023-05-11T00:15:55.531Z,71.00
2023-05-11T00:18:22.391Z,71.20
2023-05-11T00:20:49.418Z,71.20
2023-05-11T00:23:16.440Z,71.30
2023-05-11T00:25:43.669Z,71.40
2023-05-11T00:28:12.378Z,71.60
2023-05-11T00:30:40.871Z,71.70
2023-05-11T00:33:07.777Z,71.70
2023-05-11T00:35:34.566Z,71.90
2023-05-11T00:38:01.310Z,72.10
2023-05-11T00:40:28.152Z,72.20
2023-05-11T00:42:55.043Z,72.40
2023-05-11T00:45:21.875Z,72.50
2023-05-11T00:47:48.714Z,72.60
2023-05-11T00:50:16.325Z,72.60
2023-05-11T00:52:43.302Z,72.90
2023-05-11T00:55:10.554Z,73.10
2023-05-11T00:57:38.355Z,73.20
2023-05-11T01:00:08.344Z,73.30
2023-05-11T01:02:36.020Z,73.20
2023-05-11T01:05:03.441Z,73.30
2023-05-11T01:08:02.429Z,73.50
2023-05-11T01:10:49.535Z,73.50
2023-05-11T01:13:37.857Z,73.70
2023-05-11T01:16:21.188Z,73.80
2023-05-11T01:19:20.622Z,73.90
2023-05-11T01:21:47.412Z,73.80
2023-05-11T01:24:27.184Z,74.00
2023-05-11T01:27:31.950Z,74.20
2023-05-11T01:30:26.179Z,74.50
2023-05-11T01:32:58.973Z,74.70
2023-05-11T01:35:26.716Z,74.70
2023-05-11T01:37:56.081Z,74.60
2023-05-11T01:40:25.454Z,74.60
2023-05-11T01:42:58.801Z,74.80
2023-05-11T01:45:26.223Z,74.90
2023-05-11T01:47:53.385Z,75.10
2023-05-11T01:50:22.004Z,75.20
2023-05-11T01:52:49.271Z,75.20
2023-05-11T01:55:17.111Z,75.20
2023-05-11T01:57:44.002Z,75.50
2023-05-11T02:00:12.157Z,75.60
2023-05-11T02:02:39.736Z,75.50
2023-05-11T02:05:08.031Z,75.40
2023-05-11T02:07:35.487Z,75.50
2023-05-11T02:10:02.552Z,75.80
2023-05-11T02:12:29.292Z,75.80
2023-05-11T02:14:56.045Z,76.00
2023-05-11T02:17:23.023Z,76.10
2023-05-11T02:19:50.810Z,76.10
2023-05-11T02:22:17.854Z,76.30
2023-05-11T02:24:45.188Z,76.30
2023-05-11T02:27:13.052Z,76.40
2023-05-11T02:29:39.829Z,77.00
2023-05-11T02:32:12.576Z,77.00
2023-05-11T02:34:41.723Z,77.40
2023-05-11T02:37:11.633Z,77.50
2023-05-11T02:39:38.480Z,77.80
2023-05-11T02:42:23.560Z,78.10
2023-05-11T02:45:02.437Z,78.20
2023-05-11T02:47:33.586Z,78.30
2023-05-11T02:50:04.356Z,78.60
2023-05-11T02:52:31.506Z,78.80
2023-05-11T02:54:59.091Z,78.90
2023-05-11T02:57:25.851Z,78.90
2023-05-11T02:59:53.003Z,79.20
2023-05-11T03:02:20.547Z,79.50
2023-05-11T03:04:47.475Z,79.50
2023-05-11T03:07:14.707Z,79.70
2023-05-11T03:09:41.537Z,79.70
2023-05-11T03:12:08.774Z,80.00
2023-05-11T03:14:37.485Z,80.20
2023-05-11T03:17:04.816Z,80.30
2023-05-11T03:19:31.664Z,80.20
2023-05-11T03:21:58.887Z,80.50
2023-05-11T03:24:26.655Z,80.70
2023-05-11T03:26:57.268Z,80.90
2023-05-11T03:29:25.263Z,80.90
2023-05-11T03:31:52.209Z,81.10
2023-05-11T03:34:19.559Z,81.30
2023-05-11T03:36:48.067Z,81.70
2023-05-11T03:39:15.930Z,81.60
2023-05-11T03:41:44.904Z,81.80
2023-05-11T03:44:13.158Z,82.00
2023-05-11T03:46:42.542Z,82.00
2023-05-11T03:49:11.393Z,82.10
2023-05-11T03:51:39.638Z,82.00
2023-05-11T03:54:07.996Z,82.00
2023-05-11T03:56:39.546Z,82.10
2023-05-11T03:59:06.583Z,82.20
2023-05-11T04:01:35.797Z,82.30
2023-05-11T04:04:04.293Z,82.40
2023-05-11T04:06:31.491Z,82.30
2023-05-11T04:08:58.317Z,82.40
2023-05-11T04:11:26.317Z,82.20
2023-05-11T04:13:53.703Z,82.10
2023-05-11T04:16:20.580Z,82.10
2023-05-11T04:18:47.386Z,82.70
2023-05-11T04:21:14.241Z,82.00
2023-05-11T04:23:45.582Z,82.00
2023-05-11T04:26:13.143Z,81.90
2023-05-11T04:29:06.673Z,81.90
2023-05-11T04:31:36.691Z,82.00
2023-05-11T04:34:06.961Z,81.80
2023-05-11T04:36:37.637Z,81.70
2023-05-11T04:39:10.963Z,81.70
2023-05-11T04:41:39.816Z,81.70
2023-05-11T04:44:07.325Z,81.70
2023-05-11T04:46:34.165Z,81.80
2023-05-11T04:49:01.090Z,81.70
2023-05-11T04:51:27.837Z,81.70
2023-05-11T04:53:56.449Z,81.80
2023-05-11T04:56:24.503Z,81.50
2023-05-11T04:58:54.412Z,81.40
2023-05-11T05:01:24.996Z,81.40
2023-05-11T05:03:52.363Z,81.40
2023-05-11T05:06:19.616Z,81.20
2023-05-11T05:08:47.923Z,81.00
2023-05-11T05:11:17.311Z,80.70
2023-05-11T05:13:44.234Z,80.30
2023-05-11T05:16:13.349Z,79.80
2023-05-11T05:18:44.879Z,79.70
2023-05-11T05:21:13.104Z,79.70
2023-05-11T05:23:40.533Z,79.70
2023-05-11T05:26:07.463Z,79.20
2023-05-11T05:28:35.959Z,78.60
2023-05-11T05:31:02.841Z,78.20
2023-05-11T05:33:30.034Z,77.80
2023-05-11T05:35:56.840Z,77.20
2023-05-11T05:38:27.468Z,77.20
2023-05-11T05:40:57.228Z,77.20
2023-05-11T05:43:26.998Z,76.80
2023-05-11T05:45:59.450Z,75.70
2023-05-11T05:48:27.441Z,75.90
2023-05-11T05:50:57.804Z,76.30
2023-05-11T05:53:30.645Z,76.40
2023-05-11T05:55:58.036Z,76.40
2023-05-11T05:58:25.188Z,76.30
2023-05-11T06:00:59.864Z,75.70
2023-05-11T06:03:29.463Z,74.80
2023-05-11T06:08:44.273Z,74.80
2023-05-11T06:11:11.628Z,74.90
2023-05-11T06:13:38.731Z,75.20
2023-05-11T06:16:08.789Z,75.00
2023-05-11T06:18:39.300Z,74.50
2023-05-11T06:21:06.394Z,74.10
2023-05-11T06:23:33.629Z,73.40
2023-05-11T06:26:00.693Z,72.20
2023-05-11T06:28:31.102Z,71.10
2023-05-11T06:31:00.638Z,70.30
2023-05-11T06:33:29.671Z,70.30
2023-05-11T06:35:56.384Z,69.60
2023-05-11T06:38:26.301Z,68.60
2023-05-11T06:40:55.210Z,68.60
2023-05-11T06:43:22.735Z,67.90
2023-05-11T06:45:50.256Z,66.50
2023-05-11T06:48:17.516Z,66.00
2023-05-11T06:50:51.451Z,65.80
2023-05-11T06:53:19.299Z,65.40
2023-05-11T06:55:46.789Z,64.90
2023-05-11T06:58:20.728Z,63.60
2023-05-11T07:00:50.758Z,64.00
2023-05-11T07:03:18.101Z,63.10
2023-05-11T07:05:45.535Z,63.40
2023-05-11T07:08:13.021Z,63.70
2023-05-11T07:10:40.555Z,63.90
2023-05-11T07:13:08.787Z,64.50
2023-05-11T07:15:36.234Z,64.60
2023-05-11T07:18:05.151Z,64.40
2023-05-11T07:20:32.502Z,64.50
2023-05-11T07:22:59.678Z,65.00
2023-05-11T07:25:27.280Z,64.00
2023-05-11T07:27:54.341Z,63.60
2023-05-11T07:30:22.878Z,63.00
2023-05-11T07:32:49.986Z,62.10
2023-05-11T07:35:18.284Z,61.10
2023-05-11T07:37:45.072Z,61.40
2023-05-11T07:40:13.067Z,61.50
2023-05-11T07:42:43.203Z,61.90
2023-05-11T07:45:13.701Z,61.70
2023-05-11T07:47:41.390Z,61.00
2023-05-11T07:50:12.706Z,61.00
2023-05-11T07:52:39.638Z,60.10
2023-05-11T07:55:08.046Z,58.80
2023-05-11T07:57:35.126Z,59.40
2023-05-11T08:00:02.436Z,59.90
2023-05-11T08:02:30.567Z,59.00
2023-05-11T08:04:57.813Z,58.50
2023-05-11T08:07:25.501Z,58.70
2023-05-11T08:09:52.985Z,59.30
2023-05-11T08:12:19.822Z,59.70
2023-05-11T08:14:46.645Z,59.90
2023-05-11T08:17:13.466Z,60.10
2023-05-11T08:19:40.349Z,60.00
2023-05-11T08:22:07.618Z,60.00
2023-05-11T08:24:34.476Z,59.90
2023-05-11T08:27:01.393Z,59.80
2023-05-11T08:29:29.415Z,59.50
2023-05-11T08:31:57.301Z,59.30
2023-05-11T08:34:25.641Z,59.60
2023-05-11T08:36:53.331Z,60.20
2023-05-11T08:39:33.317Z,59.80
2023-05-11T08:42:08.586Z,59.60
2023-05-11T08:44:36.004Z,60.30
2023-05-11T08:47:21.281Z,59.00
2023-05-11T08:49:51.846Z,59.00
2023-05-11T08:52:19.691Z,59.30
2023-05-11T08:54:47.544Z,59.40
2023-05-11T08:57:15.094Z,58.90
2023-05-11T08:59:46.669Z,59.10
2023-05-11T09:02:20.372Z,59.60
2023-05-11T09:04:48.930Z,59.80
2023-05-11T09:07:19.914Z,59.80
2023-05-11T09:09:48.626Z,59.90
2023-05-11T09:12:19.247Z,59.60
2023-05-11T09:14:48.694Z,59.70
2023-05-11T09:17:15.692Z,59.20
2023-05-11T09:20:01.175Z,58.30
2023-05-11T09:22:31.026Z,57.60
2023-05-11T09:25:01.851Z,57.20
2023-05-11T09:27:28.970Z,57.20
2023-05-11T09:29:57.990Z,57.60
2023-05-11T09:32:26.698Z,57.70
2023-05-11T09:34:53.555Z,57.60
2023-05-11T09:37:21.638Z,57.60
2023-05-11T09:42:21.136Z,57.00
2023-05-11T09:44:49.321Z,56.50
2023-05-11T09:47:22.258Z,55.70
2023-05-11T09:49:58.198Z,56.00
2023-05-11T09:52:26.964Z,55.80
2023-05-11T09:54:54.829Z,55.30
2023-05-11T09:57:31.794Z,55.20
2023-05-11T10:00:00.215Z,55.10
2023-05-11T10:02:29.126Z,55.00
2023-05-11T10:04:58.378Z,55.20
2023-05-11T10:07:33.183Z,55.30
2023-05-11T10:10:04.445Z,54.50
2023-05-11T10:12:36.857Z,54.40
2023-05-11T10:15:08.789Z,54.30
2023-05-11T10:17:37.595Z,54.00
2023-05-11T10:20:13.713Z,54.50
2023-05-11T10:22:41.899Z,53.90
2023-05-11T10:25:12.046Z,53.60
2023-05-11T10:27:42.355Z,53.70
2023-05-11T10:30:11.801Z,53.50
2023-05-11T10:32:41.267Z,52.90
2023-05-11T10:35:12.186Z,53.10
2023-05-11T10:37:47.844Z,53.00
2023-05-11T10:43:37.690Z,53.30
2023-05-11T10:46:52.872Z,52.30
2023-05-11T10:49:36.574Z,52.80
2023-05-11T10:59:35.678Z,54.00
2023-05-11T11:02:07.911Z,54.80
2023-05-11T11:04:50.583Z,55.30
2023-05-11T11:07:19.816Z,55.90
2023-05-11T11:10:20.854Z,56.10
2023-05-11T11:13:10.320Z,55.80
2023-05-11T11:16:06.899Z,55.60
2023-05-11T11:21:44.271Z,56.10
2023-05-11T11:24:35.474Z,56.00
2023-05-11T11:27:04.829Z,56.50
2023-05-11T11:29:33.476Z,55.70
2023-05-11T11:32:24.702Z,55.70
2023-05-11T11:35:31.964Z,55.80
2023-05-11T11:38:09.935Z,55.50
2023-05-11T11:43:29.429Z,55.00
2023-05-11T11:48:58.373Z,54.10
2023-05-11T11:51:27.255Z,54.20
2023-05-11T11:54:10.257Z,54.20
2023-05-11T11:56:41.609Z,53.80
2023-05-11T11:59:14.898Z,53.80
2023-05-11T12:01:48.437Z,53.30
2023-05-11T12:04:29.533Z,53.00
2023-05-11T12:07:01.488Z,52.80
2023-05-11T12:09:32.792Z,52.60
2023-05-11T12:12:02.545Z,52.20
2023-05-11T12:14:46.157Z,52.30
2023-05-11T12:17:23.791Z,52.10
2023-05-11T12:19:55.777Z,52.30
2023-05-11T12:22:28.239Z,52.10
2023-05-11T12:25:02.116Z,52.00
2023-05-11T12:27:33.373Z,52.50
2023-05-11T12:30:06.964Z,52.60
2023-05-11T12:32:35.832Z,52.60
2023-05-11T12:35:05.360Z,52.80
2023-05-11T12:37:35.985Z,53.50
2023-05-11T12:40:02.925Z,52.70
2023-05-11T12:42:34.636Z,52.60
2023-05-11T12:45:04.968Z,52.30
2023-05-11T12:47:33.011Z,52.20
2023-05-11T12:50:00.353Z,51.80
2023-05-11T12:52:27.647Z,51.70
2023-05-11T12:55:00.637Z,52.10
2023-05-11T12:57:31.479Z,52.10
2023-05-11T13:00:21.853Z,52.30
2023-05-11T13:02:53.045Z,52.50
2023-05-11T13:05:26.754Z,52.50
2023-05-11T13:08:04.991Z,52.50
2023-05-11T13:10:34.366Z,52.50
2023-05-11T13:13:01.201Z,52.60
2023-05-11T13:15:28.935Z,52.70
2023-05-11T13:18:04.503Z,52.80
2023-05-11T13:20:35.582Z,52.60
2023-05-11T13:23:35.237Z,52.50
2023-05-11T13:26:02.914Z,52.40
2023-05-11T13:28:33.363Z,52.60
2023-05-11T13:31:03.745Z,52.70
2023-05-11T13:33:31.346Z,52.80
2023-05-11T13:35:59.240Z,52.40
2023-05-11T13:38:29.994Z,52.50
2023-05-11T13:43:51.233Z,52.40
2023-05-11T13:46:22.928Z,52.40
2023-05-11T13:48:57.989Z,51.90
2023-05-11T13:51:25.031Z,51.80
2023-05-11T13:53:54.398Z,51.80
2023-05-11T13:56:24.788Z,51.30
2023-05-11T13:58:54.457Z,51.40
2023-05-11T14:04:07.107Z,51.60
2023-05-11T14:06:37.022Z,51.60
2023-05-11T14:09:05.424Z,51.50
2023-05-11T14:11:44.620Z,51.30
2023-05-11T14:14:14.103Z,51.10
2023-05-11T14:16:41.527Z,51.40
2023-05-11T14:19:09.961Z,51.40
2023-05-11T14:21:37.534Z,51.50
2023-05-11T14:24:12.245Z,51.40
2023-05-11T14:26:39.874Z,51.20
2023-05-11T14:29:07.996Z,51.40
2023-05-11T14:31:37.857Z,51.30
2023-05-11T14:34:04.847Z,51.40
2023-05-11T14:36:32.403Z,51.60
2023-05-11T14:39:00.233Z,51.20
2023-05-11T14:41:30.231Z,51.20
2023-05-11T14:44:01.045Z,51.40
2023-05-11T14:46:29.607Z,51.90
2023-05-11T14:48:56.597Z,51.10
2023-05-11T14:51:23.905Z,50.40
2023-05-11T14:53:52.116Z,50.50
2023-05-11T14:56:18.979Z,50.60
2023-05-11T14:58:46.659Z,50.70
2023-05-11T15:01:14.079Z,50.70
2023-05-11T15:03:43.978Z,50.60
2023-05-11T15:06:11.433Z,50.30
2023-05-11T15:08:40.262Z,50.10
2023-05-11T15:11:08.894Z,50.00
2023-05-11T15:13:35.842Z,50.20
2023-05-11T15:16:02.608Z,50.10
2023-05-11T15:18:29.526Z,49.90
2023-05-11T15:20:56.497Z,49.80
2023-05-11T15:23:25.146Z,49.80
2023-05-11T15:25:54.157Z,49.90
2023-05-11T15:28:22.055Z,50.10
2023-05-11T15:30:51.048Z,50.20
2023-05-11T15:33:18.374Z,50.40
2023-05-11T15:35:48.528Z,50.40
2023-05-11T15:38:15.526Z,50.70
2023-05-11T15:40:42.342Z,50.90
2023-05-11T15:43:18.267Z,51.00
2023-05-11T15:45:45.147Z,50.90
2023-05-11T15:48:12.459Z,51.10
2023-05-11T15:50:40.377Z,51.20
2023-05-11T15:53:10.038Z,51.40
2023-05-11T15:55:37.187Z,51.50
2023-05-11T15:58:09.067Z,51.60
2023-05-11T16:00:36.146Z,51.90
2023-05-11T16:03:06.155Z,52.00
2023-05-11T16:05:34.109Z,52.10
2023-05-11T16:08:00.862Z,51.70
2023-05-11T16:10:27.846Z,51.10
2023-05-11T16:12:57.660Z,50.80
2023-05-11T16:15:26.152Z,50.50
2023-05-11T16:17:56.085Z,50.70
2023-05-11T16:20:24.499Z,50.70
2023-05-11T16:22:55.881Z,50.90
2023-05-11T16:25:24.788Z,51.00
2023-05-11T16:27:53.803Z,51.20
2023-05-11T16:30:26.789Z,51.20
2023-05-11T16:32:56.925Z,51.00
2023-05-11T16:35:24.330Z,51.00
2023-05-11T16:38:00.472Z,51.00
2023-05-11T16:40:27.849Z,51.10
2023-05-11T16:42:54.882Z,51.20
2023-05-11T16:45:22.351Z,51.10
2023-05-11T16:47:53.117Z,51.00
2023-05-11T16:50:20.244Z,51.10
2023-05-11T16:52:48.701Z,51.10
2023-05-11T16:55:22.671Z,50.90
2023-05-11T16:57:55.080Z,50.90
2023-05-11T17:00:23.118Z,51.00
2023-05-11T17:02:54.397Z,50.90
2023-05-11T17:05:22.836Z,51.00
2023-05-11T17:07:49.670Z,50.80
2023-05-11T17:10:17.370Z,50.90
2023-05-11T17:12:44.860Z,50.80
2023-05-11T17:15:12.709Z,50.60
2023-05-11T17:17:41.248Z,50.90
2023-05-11T17:20:10.847Z,50.70
2023-05-11T17:22:38.846Z,50.80
2023-05-11T17:25:06.829Z,50.90
2023-05-11T17:27:37.545Z,50.90
2023-05-11T17:30:08.886Z,50.90
2023-05-11T17:32:37.099Z,50.70
2023-05-11T17:35:04.986Z,50.50
2023-05-11T17:37:32.616Z,50.70
2023-05-11T17:40:01.422Z,50.70
2023-05-11T17:42:28.804Z,50.50
2023-05-11T17:44:57.293Z,50.50
2023-05-11T17:47:26.352Z,50.30
2023-05-11T17:49:56.931Z,50.50
2023-05-11T17:52:24.803Z,50.60
2023-05-11T17:54:52.750Z,50.50
2023-05-11T17:57:26.634Z,50.40
2023-05-11T17:59:55.224Z,50.20
2023-05-11T18:02:25.090Z,50.50
2023-05-11T18:04:52.061Z,51.00
2023-05-11T18:07:21.440Z,50.50
2023-05-11T18:09:49.194Z,50.50
2023-05-11T18:12:17.818Z,50.70
2023-05-11T18:14:44.748Z,50.80
2023-05-11T18:17:11.838Z,51.00
2023-05-11T18:19:40.003Z,53.90
2023-05-11T18:22:07.718Z,55.80
2023-05-11T18:24:34.975Z,58.70
2023-05-11T18:27:02.661Z,60.60
2023-05-11T18:29:34.527Z,62.50
2023-05-11T18:32:04.232Z,64.90
2023-05-11T18:34:34.339Z,66.40
2023-05-11T18:37:03.883Z,67.60
2023-05-11T18:39:30.899Z,69.00
2023-05-11T18:42:01.865Z,68.80
2023-05-11T18:44:32.053Z,70.00
2023-05-11T18:46:58.964Z,72.40
2023-05-11T18:49:26.325Z,73.00
2023-05-11T18:51:55.829Z,74.20
2023-05-11T18:54:23.680Z,75.30
2023-05-11T18:56:51.898Z,76.20
2023-05-11T18:59:23.556Z,77.60
2023-05-11T19:01:50.917Z,78.20
2023-05-11T19:04:24.618Z,78.70
2023-05-11T19:06:53.300Z,79.40
2023-05-11T19:09:22.347Z,80.90
2023-05-11T19:11:49.505Z,81.20
2023-05-11T19:14:16.908Z,81.80
2023-05-11T19:16:43.855Z,82.10
2023-05-11T19:19:11.571Z,82.30
2023-05-11T19:21:43.132Z,83.10
2023-05-11T19:24:11.306Z,83.70
2023-05-11T19:26:38.721Z,85.30
2023-05-11T19:29:07.494Z,85.80
2023-05-11T19:31:34.626Z,86.70
2023-05-11T19:34:05.936Z,87.10
2023-05-11T19:36:33.420Z,88.10
2023-05-11T19:39:01.662Z,89.40
2023-05-11T19:41:37.576Z,90.30
2023-05-11T19:44:05.585Z,90.30
2023-05-11T19:46:41.247Z,91.20
2023-05-11T19:49:09.213Z,91.80
2023-05-11T19:51:36.087Z,93.00
2023-05-11T19:54:08.224Z,93.70
2023-05-11T19:56:35.032Z,94.30
2023-05-11T19:59:02.723Z,94.60
2023-05-11T20:01:29.538Z,95.30
2023-05-11T20:03:56.798Z,96.90
2023-05-11T20:06:24.321Z,97.60
2023-05-11T20:08:54.976Z,98.30
2023-05-11T20:11:22.236Z,99.20
2023-05-11T20:13:50.012Z,99.90
2023-05-11T20:16:16.857Z,99.90
2023-05-11T20:18:43.827Z,99.90
2023-05-11T20:21:11.150Z,99.90
2023-05-11T20:23:40.600Z,99.90
2023-05-11T20:26:07.713Z,99.90
2023-05-11T20:28:35.049Z,99.90
2023-05-11T20:31:02.850Z,99.90
2023-05-11T20:36:01.603Z,99.90
2023-05-11T20:38:29.901Z,99.90
2023-05-11T20:40:59.742Z,99.90
2023-05-11T20:43:29.793Z,99.90
2023-05-11T20:46:02.491Z,99.90
2023-05-11T20:48:39.157Z,99.90
2023-05-11T20:51:08.604Z,99.90
2023-05-11T20:53:35.431Z,99.90
2023-05-11T20:56:03.307Z,99.90
2023-05-11T20:58:32.677Z,99.90
2023-05-11T21:01:01.158Z,99.90
2023-05-11T21:03:28.622Z,99.90
2023-05-11T21:05:56.633Z,99.90
2023-05-11T21:08:23.364Z,99.90
2023-05-11T21:10:50.097Z,99.90
2023-05-11T21:13:16.892Z,99.90
2023-05-11T21:15:45.982Z,99.90
2023-05-11T21:18:13.050Z,99.90
2023-05-11T21:20:40.930Z,99.90
2023-05-11T21:23:08.531Z,99.90
2023-05-11T21:25:36.968Z,99.90
2023-05-11T21:28:04.928Z,99.90
2023-05-11T21:30:31.922Z,99.90
2023-05-11T21:32:59.378Z,99.90
2023-05-11T21:35:28.809Z,99.90
2023-05-11T21:37:59.918Z,99.90
2023-05-11T21:40:34.693Z,99.90
2023-05-11T21:43:02.341Z,99.90
2023-05-11T21:45:36.710Z,99.90
2023-05-11T21:48:18.156Z,99.90
2023-05-11T21:51:06.224Z,99.90
2023-05-11T21:53:33.316Z,99.90
2023-05-11T21:56:03.438Z,99.90
2023-05-11T21:58:32.284Z,99.90
2023-05-11T22:01:04.098Z,99.90
2023-05-11T22:03:41.484Z,99.90
2023-05-11T22:06:08.724Z,99.90
2023-05-11T22:08:35.906Z,99.90
2023-05-11T22:11:04.268Z,99.90
2023-05-11T22:13:31.457Z,99.90
2023-05-11T22:15:58.446Z,99.90
2023-05-11T22:18:25.662Z,99.90
2023-05-11T22:20:56.868Z,99.90
2023-05-11T22:23:23.705Z,99.90
2023-05-11T22:25:54.996Z,99.90
2023-05-11T22:28:22.341Z,99.90
2023-05-11T22:30:49.499Z,99.90
2023-05-11T22:33:16.874Z,99.90
2023-05-11T22:35:44.412Z,99.90
2023-05-11T22:38:12.706Z,99.90
2023-05-11T22:40:39.548Z,99.90
2023-05-11T22:43:06.395Z,99.90
2023-05-11T22:45:33.482Z,99.90
2023-05-11T22:48:02.224Z,99.90
2023-05-11T22:50:30.020Z,99.90
2023-05-11T22:52:57.880Z,99.90
2023-05-11T22:55:26.039Z,99.90
2023-05-11T22:57:53.522Z,99.90
2023-05-11T23:00:21.171Z,99.90
2023-05-11T23:02:48.332Z,99.90
2023-05-11T23:05:16.139Z,99.90
2023-05-11T23:07:45.622Z,99.90
2023-05-11T23:10:13.830Z,99.90
2023-05-11T23:12:43.543Z,99.90
2023-05-11T23:15:10.791Z,99.90
2023-05-11T23:17:37.759Z,99.90
2023-05-11T23:20:05.225Z,99.90
2023-05-11T23:22:32.137Z,99.90
2023-05-11T23:25:01.025Z,99.90
2023-05-11T23:27:29.329Z,99.90
2023-05-11T23:29:57.766Z,99.90
2023-05-11T23:32:24.941Z,99.90
2023-05-11T23:34:54.901Z,99.90
2023-05-11T23:37:22.344Z,99.90
2023-05-11T23:39:51.674Z,99.90
2023-05-11T23:42:19.997Z,99.90
2023-05-11T23:44:47.187Z,99.90
2023-05-11T23:47:14.546Z,99.90
2023-05-11T23:49:49.037Z,99.90
2023-05-11T23:52:15.872Z,99.90
2023-05-11T23:54:42.663Z,99.90
2023-05-11T23:57:09.771Z,99.90
2023-05-11T23:59:36.567Z,99.90
